Time;durP1;ratioP1;P1;durP2;ratioP2;P2;SDS_P1;SDS_P2;PMS_P1;PMS_P2;Temp;Humidity;BMP_temperature;BMP_pressure;BME280_temperature;BME280_humidity;BME280_pressure;Samples;Min_cycle;Max_cycle;Signal;HPM_P1;HPM_P2
2024/03/07 00:00:17;;;;;;;13.50;6.33;;;;;;;7.07;100.00;96660.97;5035219;28;20290;-70
2024/03/07 00:02:47;;;;;;;16.60;6.80;;;;;;;7.10;100.00;96665.09;5034606;28;20213;-70
2024/03/07 00:05:14;;;;;;;14.70;6.23;;;;;;;6.92;100.00;96661.59;5033608;28;20221;-70
2024/03/07 00:07:41;;;;;;;13.87;6.17;;;;;;;6.88;100.00;96655.00;5034776;28;20201;-70
2024/03/07 00:10:09;;;;;;;12.50;5.97;;;;;;;6.80;100.00;96662.78;5034655;28;20577;-70
2024/03/07 00:12:36;;;;;;;17.33;5.73;;;;;;;6.71;100.00;96663.63;5034174;28;20287;-71
2024/03/07 00:15:03;;;;;;;11.17;5.10;;;;;;;6.58;100.00;96663.13;5034168;28;20217;-70
2024/03/07 00:17:30;;;;;;;9.57;4.63;;;;;;;6.45;100.00;96665.19;5034776;28;20205;-70
2024/03/07 00:19:58;;;;;;;14.40;5.87;;;;;;;6.66;100.00;96665.84;5037400;28;20201;-70
2024/03/07 00:22:26;;;;;;;9.90;4.40;;;;;;;6.50;100.00;96660.38;5038222;28;20231;-70
2024/03/07 00:24:53;;;;;;;11.97;5.83;;;;;;;6.29;100.00;96656.31;5037567;28;20237;-70
2024/03/07 00:27:20;;;;;;;13.87;5.60;;;;;;;6.31;100.00;96665.69;5037812;28;20209;-70
2024/03/07 00:29:52;;;;;;;12.33;6.03;;;;;;;6.18;100.00;96672.97;5038331;28;20216;-70
2024/03/07 00:32:19;;;;;;;14.77;5.33;;;;;;;6.13;100.00;96669.94;5038306;28;20288;-70
2024/03/07 00:34:45;;;;;;;13.60;5.13;;;;;;;6.05;100.00;96663.78;5036813;28;20217;-70
2024/03/07 00:37:13;;;;;;;12.93;5.50;;;;;;;6.30;100.00;96664.03;5037386;28;20673;-70
2024/03/07 00:39:40;;;;;;;10.67;5.20;;;;;;;6.11;100.00;96664.03;5037824;28;20854;-70
2024/03/07 00:42:07;;;;;;;11.00;4.83;;;;;;;6.15;100.00;96659.38;5037663;28;20205;-70
2024/03/07 00:44:35;;;;;;;11.23;5.60;;;;;;;6.03;100.00;96670.13;5037086;28;20746;-70
2024/03/07 00:47:02;;;;;;;14.27;6.03;;;;;;;6.09;100.00;96665.97;5037868;28;20714;-70
2024/03/07 00:49:29;;;;;;;14.07;6.93;;;;;;;6.02;100.00;96665.84;5037083;28;20208;-70
2024/03/07 00:51:56;;;;;;;15.37;5.87;;;;;;;6.10;100.00;96664.19;5038041;28;21405;-71
2024/03/07 00:54:24;;;;;;;10.13;5.10;;;;;;;6.19;100.00;96661.53;5037524;28;20229;-70
2024/03/07 00:56:50;;;;;;;9.10;5.13;;;;;;;6.00;100.00;96670.41;5037296;28;20207;-70
2024/03/07 00:59:17;;;;;;;13.13;5.33;;;;;;;6.00;100.00;96662.56;5036599;28;20201;-70
2024/03/07 01:01:44;;;;;;;14.67;5.97;;;;;;;6.08;100.00;96659.09;5038817;28;20205;-70
2024/03/07 01:04:11;;;;;;;13.07;5.67;;;;;;;6.08;100.00;96663.50;5036235;28;20733;-70
2024/03/07 01:06:38;;;;;;;9.67;4.73;;;;;;;5.98;100.00;96657.44;5036903;28;20400;-70
2024/03/07 01:09:04;;;;;;;10.67;5.17;;;;;;;6.01;100.00;96658.94;5037187;28;20213;-70
2024/03/07 01:11:32;;;;;;;14.43;5.53;;;;;;;6.14;100.00;96653.28;5038126;28;20205;-70
2024/03/07 01:13:59;;;;;;;13.77;5.97;;;;;;;5.99;100.00;96651.25;5035847;28;20232;-70
2024/03/07 01:16:25;;;;;;;18.73;7.03;;;;;;;6.04;100.00;96644.63;5037514;28;20461;-70
2024/03/07 01:18:52;;;;;;;15.13;6.60;;;;;;;6.15;100.00;96644.47;5036919;28;20214;-70
2024/03/07 01:21:18;;;;;;;18.40;6.83;;;;;;;6.05;100.00;96643.66;5037173;28;20270;-70
2024/03/07 01:23:45;;;;;;;17.67;7.40;;;;;;;6.19;100.00;96634.56;5037579;28;20602;-70
2024/03/07 01:26:12;;;;;;;22.67;8.60;;;;;;;6.05;100.00;96638.44;5036632;28;20217;-70
2024/03/07 01:28:41;;;;;;;22.93;9.97;;;;;;;6.30;100.00;96635.22;5037367;28;20209;-70
2024/03/07 01:31:07;;;;;;;21.33;9.17;;;;;;;6.04;100.00;96637.75;5035816;28;20612;-70
2024/03/07 01:33:34;;;;;;;15.93;6.37;;;;;;;6.10;100.00;96638.84;5036880;28;20970;-70
2024/03/07 01:36:01;;;;;;;15.80;5.90;;;;;;;6.09;100.00;96641.59;5036228;28;20692;-70
2024/03/07 01:38:27;;;;;;;12.03;5.40;;;;;;;6.05;100.00;96637.63;5036894;28;20209;-70
2024/03/07 01:40:54;;;;;;;16.83;7.17;;;;;;;6.05;100.00;96635.81;5035899;28;20457;-70
2024/03/07 01:43:21;;;;;;;24.43;9.40;;;;;;;5.97;100.00;96628.81;5036760;28;20790;-70
2024/03/07 01:45:54;;;;;;;23.57;9.40;;;;;;;5.93;100.00;96630.06;5035834;28;20233;-70
2024/03/07 01:48:28;;;;;;;28.13;10.83;;;;;;;5.97;100.00;96624.41;5037599;28;20227;-71
2024/03/07 01:50:55;;;;;;;32.70;11.93;;;;;;;5.60;100.00;96620.00;5035998;28;20295;-70
2024/03/07 01:53:23;;;;;;;35.40;12.60;;;;;;;5.72;100.00;96624.13;5037146;28;20315;-70
2024/03/07 01:55:50;;;;;;;35.47;11.70;;;;;;;5.63;100.00;96617.13;5035800;28;20292;-70
2024/03/07 01:58:19;;;;;;;36.33;12.47;;;;;;;5.74;100.00;96622.19;5036565;28;20216;-70
2024/03/07 02:00:46;;;;;;;30.50;12.60;;;;;;;5.68;100.00;96620.16;5035946;28;20208;-70
2024/03/07 02:03:14;;;;;;;38.20;12.87;;;;;;;5.82;100.00;96609.31;5036250;28;20761;-71
2024/03/07 02:05:41;;;;;;;34.53;12.17;;;;;;;5.77;100.00;96614.13;5034932;28;20699;-71
2024/03/07 02:08:08;;;;;;;31.40;12.53;;;;;;;5.73;100.00;96615.34;5036399;28;20245;-71
2024/03/07 02:10:35;;;;;;;34.27;12.27;;;;;;;5.67;100.00;96614.06;5036795;28;20212;-71
2024/03/07 02:13:02;;;;;;;34.37;11.43;;;;;;;5.71;100.00;96602.38;5035448;28;20225;-71
2024/03/07 02:15:29;;;;;;;31.70;12.53;;;;;;;5.64;100.00;96610.94;5035512;28;20227;-71
2024/03/07 02:17:57;;;;;;;31.30;10.67;;;;;;;5.58;100.00;96609.69;5036371;28;20224;-71
2024/03/07 02:20:27;;;;;;;26.37;10.13;;;;;;;5.67;100.00;96602.81;5036657;28;20212;-71
2024/03/07 02:22:55;;;;;;;28.10;11.03;;;;;;;5.63;100.00;96609.28;5036003;28;20201;-71
2024/03/07 02:25:22;;;;;;;27.70;10.43;;;;;;;5.40;100.00;96604.44;5034652;28;20228;-71
2024/03/07 02:27:48;;;;;;;26.27;10.13;;;;;;;5.39;100.00;96603.63;5036499;28;20370;-71
2024/03/07 02:30:16;;;;;;;28.97;11.13;;;;;;;5.28;100.00;96601.13;5036105;28;20201;-71
2024/03/07 02:32:44;;;;;;;33.43;11.90;;;;;;;5.18;100.00;96589.03;5035420;28;20287;-71
2024/03/07 02:35:10;;;;;;;32.33;11.97;;;;;;;5.20;100.00;96595.75;5034990;28;20324;-71
2024/03/07 02:37:37;;;;;;;33.00;12.50;;;;;;;5.15;100.00;96600.56;5035817;28;20204;-71
2024/03/07 02:40:06;;;;;;;27.40;10.27;;;;;;;5.11;100.00;96591.34;5034949;28;20201;-72
2024/03/07 02:42:32;;;;;;;26.93;10.13;;;;;;;4.88;100.00;96597.78;5034783;28;20693;-71
2024/03/07 02:44:59;;;;;;;31.60;11.03;;;;;;;4.74;100.00;96593.91;5035287;28;20601;-71
2024/03/07 02:47:26;;;;;;;33.47;12.10;;;;;;;4.77;100.00;96596.25;5035469;28;20278;-71
2024/03/07 02:49:52;;;;;;;29.77;10.00;;;;;;;4.75;100.00;96590.31;5036084;28;20215;-71
2024/03/07 02:52:19;;;;;;;28.17;10.67;;;;;;;4.72;100.00;96590.59;5035406;28;20197;-71
2024/03/07 02:54:45;;;;;;;24.07;10.17;;;;;;;4.76;100.00;96595.41;5034839;28;20599;-71
2024/03/07 02:57:13;;;;;;;25.10;9.40;;;;;;;4.77;100.00;96591.00;5034951;28;20738;-71
2024/03/07 02:59:40;;;;;;;23.17;10.10;;;;;;;4.53;100.00;96587.91;5036085;28;20212;-71
2024/03/07 03:02:06;;;;;;;25.57;9.37;;;;;;;4.48;100.00;96580.50;5034676;28;20201;-71
2024/03/07 03:04:33;;;;;;;25.00;9.33;;;;;;;4.46;100.00;96584.19;5035108;28;20514;-71
2024/03/07 03:07:00;;;;;;;24.60;10.43;;;;;;;4.44;100.00;96586.94;5034648;28;20232;-71
2024/03/07 03:09:28;;;;;;;23.83;9.93;;;;;;;4.35;100.00;96584.28;5035020;28;20692;-71
2024/03/07 03:11:55;;;;;;;22.13;8.63;;;;;;;4.25;100.00;96584.25;5034739;28;20339;-71
2024/03/07 03:14:23;;;;;;;23.27;9.03;;;;;;;4.43;100.00;96587.03;5034538;28;20233;-71
2024/03/07 03:16:50;;;;;;;26.13;10.33;;;;;;;4.19;100.00;96585.69;5036012;28;20291;-71
2024/03/07 03:19:16;;;;;;;29.33;11.00;;;;;;;3.92;100.00;96588.03;5034623;28;20197;-71
2024/03/07 03:21:43;;;;;;;30.33;11.10;;;;;;;4.03;100.00;96583.56;5035265;28;20216;-71
2024/03/07 03:24:10;;;;;;;27.87;11.03;;;;;;;4.20;100.00;96579.53;5032689;28;20249;-71
2024/03/07 03:26:36;;;;;;;34.40;11.83;;;;;;;4.14;100.00;96580.03;5035107;28;20224;-71
2024/03/07 03:29:03;;;;;;;32.27;12.57;;;;;;;4.27;100.00;96581.50;5034549;28;20204;-71
2024/03/07 03:31:31;;;;;;;36.00;13.10;;;;;;;4.56;100.00;96579.84;5035558;28;20200;-71
2024/03/07 03:33:58;;;;;;;42.83;13.00;;;;;;;4.51;100.00;96585.44;5034814;28;20407;-71
2024/03/07 03:36:24;;;;;;;36.80;14.13;;;;;;;4.57;100.00;96584.06;5035219;28;20208;-71
2024/03/07 03:38:51;;;;;;;35.20;13.33;;;;;;;4.69;100.00;96577.81;5034859;28;20235;-71
2024/03/07 03:41:18;;;;;;;37.60;13.63;;;;;;;4.78;100.00;96587.44;5035260;28;20205;-71
2024/03/07 03:43:44;;;;;;;39.33;14.07;;;;;;;4.91;100.00;96588.84;5035057;28;20230;-71
2024/03/07 03:46:11;;;;;;;46.87;14.67;;;;;;;4.90;100.00;96582.81;5034135;28;20228;-71
2024/03/07 03:48:41;;;;;;;35.80;13.87;;;;;;;5.11;100.00;96570.47;5034957;28;20208;-71
2024/03/07 03:51:08;;;;;;;41.90;13.73;;;;;;;5.12;100.00;96579.94;5033986;28;20208;-71
2024/03/07 03:53:35;;;;;;;42.23;15.17;;;;;;;4.88;100.00;96578.69;5035260;28;20228;-72
2024/03/07 03:56:04;;;;;;;37.53;14.53;;;;;;;4.98;100.00;96580.34;5037872;28;20208;-71
2024/03/07 03:58:30;;;;;;;42.60;15.13;;;;;;;5.10;100.00;96579.25;5038618;28;20216;-71
2024/03/07 04:00:58;;;;;;;44.73;15.00;;;;;;;4.82;100.00;96583.63;5037637;28;20205;-71
2024/03/07 04:03:24;;;;;;;40.23;14.27;;;;;;;4.81;100.00;96576.72;5038726;28;20237;-71
2024/03/07 04:05:52;;;;;;;37.50;13.03;;;;;;;5.02;100.00;96580.91;5037823;28;20686;-70
2024/03/07 04:08:20;;;;;;;41.97;13.40;;;;;;;4.97;100.00;96583.91;5038570;28;20216;-71
2024/03/07 04:10:46;;;;;;;44.47;15.50;;;;;;;5.12;100.00;96574.72;5038165;28;20456;-71
2024/03/07 04:13:13;;;;;;;38.50;14.53;;;;;;;4.70;100.00;96582.06;5038818;28;20562;-71
2024/03/07 04:15:40;;;;;;;35.07;13.07;;;;;;;4.76;100.00;96578.91;5037648;28;20255;-71
2024/03/07 04:18:07;;;;;;;38.00;14.43;;;;;;;4.81;100.00;96576.72;5038388;28;20212;-71
2024/03/07 04:20:33;;;;;;;34.80;14.70;;;;;;;4.79;100.00;96579.47;5038106;28;20927;-71
2024/03/07 04:23:02;;;;;;;37.77;12.87;;;;;;;4.88;100.00;96578.69;5037781;28;20809;-71
2024/03/07 04:25:28;;;;;;;38.87;14.17;;;;;;;4.72;100.00;96578.34;5036826;28;20591;-71
2024/03/07 04:27:55;;;;;;;34.23;12.00;;;;;;;4.82;100.00;96583.63;5038559;28;20236;-71
2024/03/07 04:30:21;;;;;;;39.47;14.37;;;;;;;4.54;100.00;96577.34;5038104;28;20636;-71
2024/03/07 04:32:48;;;;;;;39.90;13.50;;;;;;;4.66;100.00;96562.41;5038271;28;20483;-71
2024/03/07 04:35:15;;;;;;;36.90;12.77;;;;;;;4.48;100.00;96564.00;5037388;28;20675;-71
2024/03/07 04:37:42;;;;;;;38.03;14.57;;;;;;;4.63;100.00;96567.91;5038658;28;20295;-71
2024/03/07 04:40:15;;;;;;;40.50;14.00;;;;;;;4.76;100.00;96573.69;5037674;28;20535;-71
2024/03/07 04:42:43;;;;;;;34.17;12.67;;;;;;;4.77;100.00;96565.72;5038579;28;20213;-71
2024/03/07 04:45:12;;;;;;;38.27;14.20;;;;;;;4.77;100.00;96570.13;5037754;28;20201;-71
2024/03/07 04:47:39;;;;;;;35.80;14.17;;;;;;;4.91;100.00;96560.97;5037821;28;20224;-71
2024/03/07 04:50:07;;;;;;;35.43;12.90;;;;;;;5.10;100.00;96562.75;5037164;28;20375;-71
2024/03/07 04:52:34;;;;;;;40.20;14.27;;;;;;;4.88;100.00;96568.22;5038742;28;20209;-71
2024/03/07 04:55:01;;;;;;;37.57;13.57;;;;;;;4.87;100.00;96566.56;5037524;28;20228;-71
2024/03/07 04:57:28;;;;;;;38.17;14.00;;;;;;;5.00;100.00;96564.53;5037929;28;20398;-71
2024/03/07 04:59:55;;;;;;;32.90;13.50;;;;;;;4.75;100.00;96572.88;5038294;28;20211;-71
2024/03/07 05:02:23;;;;;;;40.40;14.00;;;;;;;4.86;100.00;96572.75;5037794;28;20545;-71
2024/03/07 05:04:51;;;;;;;38.63;15.57;;;;;;;4.56;100.00;96567.59;5036202;28;20222;-71
2024/03/07 05:07:18;;;;;;;36.07;13.63;;;;;;;4.89;100.00;96570.72;5037617;28;20224;-71
2024/03/07 05:09:45;;;;;;;34.57;13.03;;;;;;;4.95;100.00;96569.34;5038649;28;20213;-71
2024/03/07 05:12:11;;;;;;;33.93;12.23;;;;;;;5.04;100.00;96569.38;5037876;28;20209;-71
2024/03/07 05:14:39;;;;;;;36.73;13.13;;;;;;;5.24;100.00;96571.00;5037309;28;20231;-71
2024/03/07 05:17:08;;;;;;;45.60;14.77;;;;;;;5.02;100.00;96576.50;5037450;28;20229;-71
2024/03/07 05:19:35;;;;;;;42.63;13.93;;;;;;;5.16;100.00;96565.66;5037984;28;20214;-71
2024/03/07 05:22:02;;;;;;;38.47;13.77;;;;;;;5.19;100.00;96570.59;5037213;28;20213;-70
2024/03/07 05:24:29;;;;;;;35.83;13.30;;;;;;;5.20;100.00;96572.25;5037394;28;20228;-70
2024/03/07 05:26:56;;;;;;;36.63;12.40;;;;;;;5.19;100.00;96562.75;5037427;28;20225;-71
2024/03/07 05:29:23;;;;;;;46.93;15.13;;;;;;;5.06;100.00;96570.03;5037699;28;20590;-71
2024/03/07 05:31:50;;;;;;;33.50;12.40;;;;;;;5.21;100.00;96570.50;5037050;28;20699;-70
2024/03/07 05:34:18;;;;;;;37.50;14.03;;;;;;;5.01;100.00;96579.25;5036317;28;20220;-71
2024/03/07 05:36:46;;;;;;;38.50;14.87;;;;;;;4.86;100.00;96576.22;5036849;28;20201;-70
2024/03/07 05:39:13;;;;;;;35.03;13.50;;;;;;;4.48;100.00;96579.66;5036456;28;20266;-71
2024/03/07 05:41:40;;;;;;;38.43;14.73;;;;;;;4.78;100.00;96577.00;5036822;28;20223;-71
2024/03/07 05:44:08;;;;;;;34.77;13.67;;;;;;;4.95;100.00;96580.63;5036150;28;20225;-71
2024/03/07 05:46:36;;;;;;;38.47;14.13;;;;;;;4.94;100.00;96576.34;5037131;28;20231;-70
2024/03/07 05:49:04;;;;;;;39.97;12.47;;;;;;;5.15;100.00;96571.84;5036735;28;20231;-70
2024/03/07 05:51:31;;;;;;;40.43;14.23;;;;;;;5.06;100.00;96572.66;5037049;28;20263;-71
2024/03/07 05:53:57;;;;;;;39.93;13.67;;;;;;;5.07;100.00;96569.09;5035966;28;20225;-71
2024/03/07 05:56:24;;;;;;;37.53;12.27;;;;;;;5.11;100.00;96580.91;5035978;28;20703;-70
2024/03/07 05:58:51;;;;;;;38.63;14.97;;;;;;;5.13;100.00;96573.78;5037204;28;20218;-70
2024/03/07 06:01:18;;;;;;;32.63;13.20;;;;;;;5.19;100.00;96583.66;5035972;28;20197;-70
2024/03/07 06:03:44;;;;;;;43.90;14.60;;;;;;;5.19;100.00;96578.44;5036235;28;20323;-71
2024/03/07 06:06:12;;;;;;;35.87;12.80;;;;;;;5.42;100.00;96581.63;5035409;28;20212;-70
2024/03/07 06:08:42;;;;;;;34.23;12.90;;;;;;;5.24;100.00;96578.03;5036660;28;20201;-72
2024/03/07 06:11:09;;;;;;;36.23;14.10;;;;;;;5.24;100.00;96589.31;5035925;28;20559;-72
2024/03/07 06:13:37;;;;;;;33.00;12.33;;;;;;;5.31;100.00;96585.19;5036753;28;20225;-72
2024/03/07 06:16:07;;;;;;;39.83;13.40;;;;;;;5.23;100.00;96585.06;5035402;28;20256;-72
2024/03/07 06:18:34;;;;;;;36.77;13.77;;;;;;;5.14;100.00;96582.44;5036860;28;20847;-72
2024/03/07 06:21:01;;;;;;;35.27;13.73;;;;;;;5.11;100.00;96580.91;5036403;28;20982;-71
2024/03/07 06:23:30;;;;;;;34.37;13.33;;;;;;;5.28;100.00;96579.41;5036401;28;20221;-72
2024/03/07 06:25:58;;;;;;;37.77;13.37;;;;;;;5.22;100.00;96578.19;5036322;28;20267;-71
2024/03/07 06:28:25;;;;;;;41.33;14.47;;;;;;;4.94;100.00;96584.19;5036084;28;20458;-71
2024/03/07 06:30:51;;;;;;;41.50;15.07;;;;;;;5.02;100.00;96580.91;5037086;28;20229;-72
2024/03/07 06:33:18;;;;;;;38.17;14.13;;;;;;;5.17;100.00;96575.16;5036360;28;20225;-72
2024/03/07 06:35:44;;;;;;;38.80;14.77;;;;;;;4.94;100.00;96584.19;5035869;28;20263;-71
2024/03/07 06:38:11;;;;;;;37.47;14.67;;;;;;;5.10;100.00;96576.63;5036156;28;20209;-72
2024/03/07 06:40:42;;;;;;;35.50;13.57;;;;;;;5.11;100.00;96580.91;5036326;28;20585;-72
2024/03/07 06:43:10;;;;;;;39.00;14.30;;;;;;;4.70;100.00;96585.50;5035703;28;21146;-71
2024/03/07 06:45:36;;;;;;;40.13;13.83;;;;;;;4.95;100.00;96585.00;5036322;28;20212;-72
2024/03/07 06:48:04;;;;;;;35.30;14.03;;;;;;;4.99;100.00;96582.00;5035978;28;21022;-72
2024/03/07 06:50:31;;;;;;;34.37;13.77;;;;;;;5.14;100.00;96583.28;5035512;28;20291;-71
2024/03/07 06:56:46;;;;;;;37.97;13.43;;;;;;;5.49;100.00;96583.56;5053573;27;20581;-72
2024/03/07 06:59:14;;;;;;;35.47;13.60;;;;;;;5.37;100.00;96583.81;5053036;28;20223;-72
2024/03/07 07:01:42;;;;;;;36.77;13.97;;;;;;;5.42;100.00;96579.81;5053477;28;20205;-72
2024/03/07 07:04:09;;;;;;;42.20;13.60;;;;;;;5.41;100.00;96582.56;5052447;28;20270;-72
2024/03/07 07:06:35;;;;;;;35.20;12.77;;;;;;;5.18;100.00;96584.66;5053129;28;20228;-72
2024/03/07 07:09:03;;;;;;;44.70;14.00;;;;;;;5.29;100.00;96584.50;5052575;28;20213;-72
2024/03/07 07:11:30;;;;;;;38.60;13.70;;;;;;;5.21;100.00;96575.72;5052887;28;20313;-72
2024/03/07 07:13:57;;;;;;;40.07;15.20;;;;;;;5.23;100.00;96585.06;5052042;28;20235;-72
2024/03/07 07:16:24;;;;;;;38.13;13.43;;;;;;;5.21;100.00;96579.13;5052630;28;20223;-72
2024/03/07 07:18:52;;;;;;;41.73;16.17;;;;;;;5.19;100.00;96578.44;5052099;28;20205;-72
2024/03/07 07:21:19;;;;;;;45.47;13.80;;;;;;;5.21;100.00;96576.53;5051459;28;20204;-72
2024/03/07 07:23:46;;;;;;;38.73;14.33;;;;;;;5.34;100.00;96577.06;5053314;28;20224;-72
2024/03/07 07:26:13;;;;;;;39.23;14.17;;;;;;;5.54;100.00;96578.75;5050955;28;20233;-72
2024/03/07 07:28:40;;;;;;;44.57;14.73;;;;;;;5.38;100.00;96582.88;5051918;28;20208;-72
2024/03/07 07:31:09;;;;;;;38.10;13.87;;;;;;;5.69;100.00;96572.09;5051718;28;20219;-72
2024/03/07 07:33:36;;;;;;;42.03;15.13;;;;;;;5.48;100.00;96574.88;5052599;28;20225;-72
2024/03/07 07:36:02;;;;;;;38.67;13.40;;;;;;;5.60;100.00;96575.56;5052270;28;20213;-72
2024/03/07 07:38:30;;;;;;;35.63;13.83;;;;;;;5.33;100.00;96575.41;5051716;28;20201;-72
2024/03/07 07:40:57;;;;;;;34.13;13.10;;;;;;;5.29;100.00;96581.88;5052037;28;20208;-73
2024/03/07 07:43:23;;;;;;;37.13;13.17;;;;;;;5.39;100.00;96580.09;5051850;28;20229;-72
2024/03/07 07:45:50;;;;;;;36.10;13.57;;;;;;;5.17;100.00;96580.38;5051533;28;20228;-72
2024/03/07 07:48:19;;;;;;;33.73;13.03;;;;;;;5.71;100.00;96570.19;5050360;28;20672;-72
2024/03/07 07:50:45;;;;;;;39.60;13.50;;;;;;;5.30;100.00;96575.69;5049667;28;20687;-72
2024/03/07 07:53:12;;;;;;;37.17;14.77;;;;;;;5.15;100.00;96576.25;5049962;28;20597;-72
2024/03/07 07:55:40;;;;;;;40.40;14.20;;;;;;;5.34;100.00;96571.03;5049180;28;20224;-72
2024/03/07 07:58:07;;;;;;;41.20;13.60;;;;;;;5.33;100.00;96575.41;5049849;28;20476;-72
2024/03/07 08:00:35;;;;;;;38.97;13.30;;;;;;;5.33;100.00;96575.41;5050096;28;20197;-72
2024/03/07 08:03:03;;;;;;;39.07;14.43;;;;;;;5.39;100.00;96569.66;5049322;28;20232;-72
2024/03/07 08:05:32;;;;;;;37.33;13.60;;;;;;;5.55;100.00;96575.16;5048857;28;20814;-72
2024/03/07 08:08:02;;;;;;;33.83;13.67;;;;;;;5.34;100.00;96571.84;5037369;28;20216;-72
2024/03/07 08:10:29;;;;;;;34.13;13.83;;;;;;;5.38;100.00;96573.22;5035981;28;20324;-72
2024/03/07 08:12:56;;;;;;;37.77;14.03;;;;;;;5.56;100.00;96568.94;5036414;28;20213;-72
2024/03/07 08:15:23;;;;;;;37.00;13.83;;;;;;;5.56;100.00;96563.72;5036264;28;20215;-72
2024/03/07 08:17:51;;;;;;;39.60;14.03;;;;;;;5.49;100.00;96563.47;5036863;28;20209;-72
2024/03/07 08:20:20;;;;;;;41.90;14.13;;;;;;;5.64;100.00;96558.66;5036292;28;20706;-72
2024/03/07 08:22:51;;;;;;;43.07;15.73;;;;;;;5.67;100.00;96559.19;5035891;28;20262;-72
2024/03/07 08:25:18;;;;;;;38.50;14.40;;;;;;;5.76;100.00;96558.38;5035775;28;20231;-72
2024/03/07 08:27:46;;;;;;;42.17;15.27;;;;;;;5.90;100.00;96554.50;5035631;28;20209;-72
2024/03/07 08:30:14;;;;;;;38.53;15.23;;;;;;;5.74;100.00;96557.66;5035997;28;20264;-72
2024/03/07 08:32:41;;;;;;;44.90;14.40;;;;;;;5.86;100.00;96558.38;5035717;28;20209;-72
2024/03/07 08:35:09;;;;;;;42.93;13.77;;;;;;;5.75;100.00;96548.88;5035244;28;20213;-72
2024/03/07 08:37:37;;;;;;;37.70;14.07;;;;;;;5.94;100.00;96553.25;5036373;28;20255;-72
2024/03/07 08:40:07;;;;;;;41.17;15.70;;;;;;;5.78;100.00;96547.75;5035750;28;20704;-72
2024/03/07 08:42:34;;;;;;;44.83;15.67;;;;;;;5.94;100.00;96553.25;5035626;28;20578;-72
2024/03/07 08:45:01;;;;;;;40.33;13.67;;;;;;;6.07;100.00;96558.03;5035017;28;20231;-72
2024/03/07 08:47:30;;;;;;;39.37;14.50;;;;;;;6.06;100.00;96553.75;5036240;28;20201;-72
2024/03/07 08:49:56;;;;;;;42.97;14.07;;;;;;;6.07;100.00;96550.19;5034869;28;20207;-72
2024/03/07 08:52:23;;;;;;;36.70;13.67;;;;;;;6.15;100.00;96552.09;5034943;28;20300;-72
2024/03/07 08:54:49;;;;;;;46.67;15.27;;;;;;;6.30;100.00;96551.50;5035160;28;20233;-71
2024/03/07 08:57:18;;;;;;;38.40;14.00;;;;;;;6.62;100.00;96549.28;5035063;28;20232;-71
2024/03/07 08:59:44;;;;;;;36.40;13.40;;;;;;;6.55;100.00;96553.44;5035128;28;20267;-71
2024/03/07 09:02:12;;;;;;;34.50;13.20;;;;;;;6.70;100.00;96544.94;5034419;28;20201;-71
2024/03/07 09:04:40;;;;;;;45.50;16.10;;;;;;;6.64;100.00;96547.31;5034431;28;20233;-71
2024/03/07 09:07:07;;;;;;;45.30;15.30;;;;;;;6.68;100.00;96535.59;5034677;28;20688;-71
2024/03/07 09:09:34;;;;;;;38.57;12.93;;;;;;;6.83;100.00;96542.00;5035389;28;20201;-71
2024/03/07 09:12:01;;;;;;;38.63;15.13;;;;;;;6.86;100.00;96541.69;5034897;28;20205;-71
2024/03/07 09:14:29;;;;;;;36.07;13.90;;;;;;;6.93;100.00;96532.28;5034031;28;20290;-72
2024/03/07 09:16:56;;;;;;;32.93;13.03;;;;;;;6.80;100.00;96542.28;5034541;28;20209;-71
2024/03/07 09:19:24;;;;;;;37.43;14.90;;;;;;;7.15;100.00;96537.91;5033083;28;20212;-71
2024/03/07 09:21:51;;;;;;;37.70;14.53;;;;;;;7.52;100.00;96531.56;5034953;28;20351;-71
2024/03/07 09:24:21;;;;;;;50.37;15.67;;;;;;;7.39;100.00;96531.09;5034529;28;20518;-71
2024/03/07 09:26:48;;;;;;;38.53;14.00;;;;;;;6.75;100.00;96537.47;5034643;28;20599;-71
2024/03/07 09:29:14;;;;;;;38.10;14.33;;;;;;;6.37;100.00;96536.84;5034379;28;20217;-71
2024/03/07 09:31:42;;;;;;;43.87;15.27;;;;;;;6.80;100.00;96529.19;5034935;28;20700;-71
2024/03/07 09:34:09;;;;;;;40.50;13.90;;;;;;;6.67;100.00;96533.97;5032259;28;20235;-71
2024/03/07 09:36:35;;;;;;;38.70;14.17;;;;;;;6.68;100.00;96532.97;5035345;28;20975;-71
2024/03/07 09:39:02;;;;;;;42.37;14.90;;;;;;;7.21;100.00;96528.66;5035284;28;20212;-71
2024/03/07 09:41:28;;;;;;;53.47;16.63;;;;;;;7.53;100.00;96538.41;5035884;28;20206;-71
2024/03/07 09:43:57;;;;;;;50.27;16.63;;;;;;;7.59;100.00;96534.41;5033071;28;20476;-72
2024/03/07 09:46:24;;;;;;;48.23;16.20;;;;;;;7.15;100.00;96543.16;5034702;28;20213;-72
2024/03/07 09:48:53;;;;;;;44.43;15.73;;;;;;;7.09;100.00;96532.44;5034580;28;20209;-72
2024/03/07 09:51:20;;;;;;;45.60;16.17;;;;;;;7.14;100.00;96530.19;5033813;28;20209;-72
2024/03/07 09:53:50;;;;;;;46.33;16.97;;;;;;;7.53;100.00;96527.94;5034019;28;20713;-72
2024/03/07 09:56:20;;;;;;;37.60;14.23;;;;;;;7.19;100.00;96536.63;5033725;28;20237;-72
2024/03/07 09:58:50;;;;;;;41.83;15.73;;;;;;;7.50;100.00;96541.34;5034188;28;20262;-72
2024/03/07 10:01:19;;;;;;;44.33;15.87;;;;;;;7.47;100.00;96531.19;5032664;28;20206;-72
2024/03/07 10:03:47;;;;;;;42.07;15.50;;;;;;;7.29;100.00;96530.38;5033056;28;20229;-72
2024/03/07 10:06:15;;;;;;;42.20;14.73;;;;;;;7.34;100.00;96535.97;5032221;28;20228;-72
2024/03/07 10:08:43;;;;;;;38.03;14.57;;;;;;;7.32;100.00;96537.09;5034370;28;20382;-72
2024/03/07 10:11:10;;;;;;;46.97;16.03;;;;;;;7.34;100.00;96530.75;5032924;28;20296;-72
2024/03/07 10:13:36;;;;;;;39.60;15.77;;;;;;;7.18;100.00;96534.16;5034580;28;20738;-72
2024/03/07 10:16:04;;;;;;;46.00;17.30;;;;;;;7.02;100.00;96534.00;5032672;28;20197;-72
2024/03/07 10:18:32;;;;;;;45.87;18.50;;;;;;;6.81;100.00;96533.44;5034807;28;21147;-72
2024/03/07 10:21:01;;;;;;;47.23;15.83;;;;;;;6.78;100.00;96533.75;5033649;28;20205;-72
2024/03/07 10:23:29;;;;;;;47.07;16.10;;;;;;;7.19;100.00;96530.56;5033894;28;20312;-72
2024/03/07 10:25:56;;;;;;;46.80;15.93;;;;;;;7.07;100.00;96529.16;5033327;28;20233;-72
2024/03/07 10:28:22;;;;;;;50.67;17.47;;;;;;;7.22;100.00;96525.03;5034560;28;20209;-72
2024/03/07 10:30:50;;;;;;;50.10;17.53;;;;;;;7.71;100.00;96520.88;5034013;28;20232;-72
2024/03/07 10:33:18;;;;;;;44.17;16.43;;;;;;;8.19;100.00;96505.47;5033293;28;20225;-71
2024/03/07 10:35:49;;;;;;;39.67;15.37;;;;;;;8.12;100.00;96501.78;5032911;28;20300;-71
2024/03/07 10:38:18;;;;;;;48.97;17.07;;;;;;;7.76;100.00;96502.88;5033150;28;20215;-72
2024/03/07 10:40:48;;;;;;;45.60;15.90;;;;;;;8.07;100.00;96494.41;5033951;28;20662;-72
2024/03/07 10:43:17;;;;;;;43.23;14.07;;;;;;;7.70;100.00;96493.00;5033497;28;20308;-72
2024/03/07 10:45:46;;;;;;;48.60;16.40;;;;;;;7.54;100.00;96490.25;5033061;28;20298;-72
2024/03/07 10:48:14;;;;;;;42.97;16.30;;;;;;;7.50;100.00;96491.53;5034143;28;20213;-72
2024/03/07 10:50:48;;;;;;;43.93;15.90;;;;;;;8.06;100.00;96492.75;5034203;28;20205;-72
2024/03/07 10:53:22;;;;;;;45.03;16.17;;;;;;;8.48;100.00;96481.31;5034280;28;20228;-72
2024/03/07 10:56:01;;;;;;;50.27;18.60;;;;;;;8.58;100.00;96484.66;5033226;28;20217;-72
2024/03/07 10:58:38;;;;;;;54.70;16.30;;;;;;;8.66;100.00;96484.66;5034548;28;20209;-72
2024/03/07 11:01:06;;;;;;;48.17;16.77;;;;;;;8.57;100.00;96487.44;5033320;28;20201;-72
2024/03/07 11:03:35;;;;;;;46.70;16.53;;;;;;;8.18;100.00;96486.25;5034674;28;20231;-72
2024/03/07 11:06:06;;;;;;;45.27;16.00;;;;;;;7.98;100.00;96489.22;5034808;28;20225;-72
2024/03/07 11:08:34;;;;;;;46.73;16.60;;;;;;;8.19;100.00;96494.97;5034823;28;20193;-72
2024/03/07 11:11:02;;;;;;;38.67;14.57;;;;;;;8.26;100.00;96488.13;5034422;28;21361;-72
2024/03/07 11:13:30;;;;;;;44.20;15.57;;;;;;;7.85;100.00;96488.81;5034605;28;20231;-72
2024/03/07 11:16:00;;;;;;;40.37;14.70;;;;;;;8.00;100.00;96492.53;5034637;28;20212;-72
2024/03/07 11:18:27;;;;;;;45.97;16.57;;;;;;;8.12;100.00;96478.16;5034790;28;20591;-72
2024/03/07 11:20:54;;;;;;;50.57;16.93;;;;;;;7.99;100.00;96477.78;5035278;28;20448;-72
2024/03/07 11:23:28;;;;;;;43.80;16.23;;;;;;;7.94;100.00;96485.28;5034780;28;20236;-72